»·PEaware :: N7GL KGCN-KSNA

N7GL :: KGCN-KSNA

FLIGHT INFORMATION

Flight Status: Arrived
Operator: Privately registered:
United States
More flights under this callsign
Pilot: Georg L. (13308)
Aircraft: BEECH AIRCRAFT SUPER KING AIR 350
(B350)
More flights by this aircraft type
Origin: KGCN Grand Canyon Natl Park
United States
Destination: KSNA John Wayne-Orange Co
United States
More flights between these airports :: More routes between these airports
Route: PARKS4 PGS MARUE DSNEE4
File this flight plan on PilotEdge
Remarks:
Altitude:
(Current/Filed)
22,000ft
Speed:
(Current/Filed)
297kts
Departed: 29-Jul-20 01:08 PM
Arrived: 29-Jul-20 02:24 PM
Distance/Time
Traveled:
314nm/1:16
Distance/Time
To Go:
Arrived

Flight Plot

Page will automatically refresh every two minutes.

Flight plan parsing failed; only flown route is shown


Map Options




Map Legend


Flown Route
Filed Route
Departure Airport
Arrival Airport
Navaid (VOR, NDB)
Fix

Horizontal Profiles

Position Reports

Time Latitude Longitude Heading Altitude Ground
Speed
29-Jul-20 12:45 35.959504 -112.136870 218 6616ft 0kts
29-Jul-20 12:46 35.959504 -112.136870 218 6616ft 0kts
29-Jul-20 12:47 35.959504 -112.136870 218 6616ft 0kts
29-Jul-20 12:48 35.959504 -112.136870 218 6616ft 0kts
29-Jul-20 12:49 35.959504 -112.136870 218 6616ft 0kts
29-Jul-20 12:50 35.959504 -112.136870 218 6616ft 0kts
29-Jul-20 12:51 35.959504 -112.136870 218 6616ft 0kts
29-Jul-20 12:52 35.959504 -112.136870 218 6616ft 0kts
29-Jul-20 12:53 35.959504 -112.136870 218 6616ft 0kts
29-Jul-20 12:54 35.959504 -112.136870 218 6616ft 0kts
29-Jul-20 12:55 35.959504 -112.136870 218 6616ft 0kts
29-Jul-20 12:56 35.959504 -112.136870 218 6616ft 0kts
29-Jul-20 12:57 35.959504 -112.136870 218 6616ft 0kts
29-Jul-20 12:58 35.959504 -112.136870 218 6616ft 0kts
29-Jul-20 12:59 35.959504 -112.136870 218 6616ft 0kts
29-Jul-20 13:00 35.959504 -112.136870 218 6616ft 0kts
29-Jul-20 13:01 35.959504 -112.136870 218 6616ft 0kts
29-Jul-20 13:02 35.959504 -112.136870 218 6616ft 0kts
29-Jul-20 13:03 35.959876 -112.137291 40 6613ft 6kts
29-Jul-20 13:04 35.960994 -112.136326 332 6614ft 0kts
29-Jul-20 13:05 35.960995 -112.136326 332 6614ft 0kts
29-Jul-20 13:06 35.961441 -112.137033 282 6613ft 12kts
29-Jul-20 13:07 35.950025 -112.148078 210 6984ft 144kts
29-Jul-20 13:08 35.913638 -112.179999 228 9175ft 183kts
29-Jul-20 13:09 35.918483 -112.248752 281 10004ft 239kts
29-Jul-20 13:10 35.916638 -112.333554 254 9993ft 259kts
29-Jul-20 13:11 35.896504 -112.420378 253 9992ft 263kts
29-Jul-20 13:12 35.878927 -112.494142 252 12923ft 186kts
29-Jul-20 13:13 35.863940 -112.556397 254 14908ft 191kts
29-Jul-20 13:14 35.848684 -112.620520 254 16300ft 196kts
29-Jul-20 13:15 35.833120 -112.685272 254 17652ft 198kts
29-Jul-20 13:16 35.817433 -112.750892 255 18934ft 200kts
29-Jul-20 13:17 35.801615 -112.816942 256 20167ft 200kts
29-Jul-20 13:18 35.785845 -112.882804 256 21173ft 201kts
29-Jul-20 13:19 35.769933 -112.948893 256 22082ft 201kts
29-Jul-20 13:20 35.752848 -113.020182 256 22173ft 235kts
29-Jul-20 13:21 35.733470 -113.098495 255 22123ft 227kts
29-Jul-20 13:22 35.716779 -113.167597 257 22154ft 209kts
29-Jul-20 13:23 35.699128 -113.241727 256 22146ft 239kts
29-Jul-20 13:24 35.679306 -113.323211 256 22140ft 257kts
29-Jul-20 13:25 35.658196 -113.409456 256 22138ft 267kts
29-Jul-20 13:26 35.636372 -113.498280 256 22138ft 276kts
29-Jul-20 13:27 35.613357 -113.589485 254 22136ft 282kts
29-Jul-20 13:28 35.588586 -113.680944 253 22137ft 285kts
29-Jul-20 13:29 35.563377 -113.774095 253 22137ft 287kts
29-Jul-20 13:30 35.537486 -113.866862 253 22137ft 288kts
29-Jul-20 13:31 35.512014 -113.960349 254 22135ft 288kts
29-Jul-20 13:32 35.486316 -114.055376 253 22095ft 297kts
29-Jul-20 13:33 35.459670 -114.152367 253 21999ft 302kts
29-Jul-20 13:34 35.432585 -114.250753 253 21895ft 305kts
29-Jul-20 13:35 35.405387 -114.349226 253 21874ft 304kts
29-Jul-20 13:36 35.378247 -114.447584 253 21856ft 304kts
29-Jul-20 13:37 35.351342 -114.545756 253 21843ft 304kts
29-Jul-20 13:38 35.324138 -114.643637 253 21843ft 304kts
29-Jul-20 13:39 35.296710 -114.741539 252 21844ft 304kts
29-Jul-20 13:40 35.269118 -114.839595 252 21844ft 304kts
29-Jul-20 13:41 35.242362 -114.938378 254 21844ft 304kts
29-Jul-20 13:42 35.217166 -115.037800 253 21863ft 304kts
29-Jul-20 13:43 35.191924 -115.136530 253 21893ft 304kts
29-Jul-20 13:44 35.166543 -115.235375 253 21876ft 305kts
29-Jul-20 13:45 35.141079 -115.334188 253 21912ft 304kts
29-Jul-20 13:46 35.115721 -115.432664 253 21932ft 304kts
29-Jul-20 13:47 35.090227 -115.531455 253 21953ft 304kts
29-Jul-20 13:48 35.064740 -115.629807 253 21995ft 303kts
29-Jul-20 13:49 35.040329 -115.723664 253 22031ft 303kts
29-Jul-20 13:50 35.014842 -115.822462 253 22019ft 304kts
29-Jul-20 13:51 34.989716 -115.921355 253 22011ft 305kts
29-Jul-20 13:52 34.964374 -116.020431 253 22016ft 305kts
29-Jul-20 13:53 34.938991 -116.119282 253 22021ft 305kts
29-Jul-20 13:54 34.913515 -116.218114 253 22019ft 305kts
29-Jul-20 13:55 34.890279 -116.307835 252 22004ft 306kts
29-Jul-20 13:56 34.838509 -116.388960 228 21986ft 306kts
29-Jul-20 13:57 34.780310 -116.465001 227 21979ft 307kts
29-Jul-20 13:58 34.721261 -116.540112 226 21978ft 307kts
29-Jul-20 13:59 34.658258 -116.609981 219 21975ft 307kts
29-Jul-20 14:00 34.602702 -116.664249 218 21977ft 307kts
29-Jul-20 14:01 34.534600 -116.730820 218 21362ft 325kts
29-Jul-20 14:03 34.463557 -116.807788 223 19151ft 350kts
29-Jul-20 14:04 34.393976 -116.888764 222 17155ft 345kts
29-Jul-20 14:05 34.327022 -116.966161 222 15133ft 322kts
29-Jul-20 14:06 34.264136 -117.035966 213 14092ft 281kts
29-Jul-20 14:07 34.199160 -117.083189 209 13282ft 269kts
29-Jul-20 14:08 34.131337 -117.124559 202 13048ft 285kts
29-Jul-20 14:09 34.057429 -117.164417 203 12267ft 286kts
29-Jul-20 14:10 33.988886 -117.208471 221 11719ft 277kts
29-Jul-20 14:11 33.938203 -117.278515 227 11027ft 278kts
29-Jul-20 14:12 33.889092 -117.348329 228 10061ft 265kts
29-Jul-20 14:13 33.842503 -117.414121 228 8646ft 251kts
29-Jul-20 14:14 33.807153 -117.482160 247 7918ft 229kts
29-Jul-20 14:15 33.808837 -117.553982 306 7438ft 233kts
29-Jul-20 14:16 33.853793 -117.617261 310 5847ft 254kts
29-Jul-20 14:17 33.898025 -117.681149 302 4036ft 244kts
29-Jul-20 14:18 33.875587 -117.741872 208 2898ft 215kts
29-Jul-20 14:19 33.829017 -117.771546 209 2886ft 170kts
29-Jul-20 14:20 33.787124 -117.798229 208 2458ft 174kts
29-Jul-20 14:20 33.753393 -117.819567 208 1698ft 151kts
29-Jul-20 14:22 33.714754 -117.843915 207 778ft 121kts
29-Jul-20 14:22 33.691345 -117.858819 208 315ft 112kts
29-Jul-20 14:23 33.670503 -117.872095 206 61ft 12kts
29-Jul-20 14:24 33.669067 -117.871487 134 61ft 0kts
29-Jul-20 14:26 33.668170 -117.871904 222 61ft 13kts
29-Jul-20 14:26 33.666271 -117.873483 210 61ft 1kts
29-Jul-20 14:27 33.665869 -117.873003 21 61ft 0kts
29-Jul-20 14:28 33.665870 -117.873003 21 61ft 0kts
29-Jul-20 14:29 33.665869 -117.873003 21 61ft 0kts
29-Jul-20 14:30 33.665869 -117.873003 21 61ft 0kts
29-Jul-20 14:31 33.665869 -117.873003 21 61ft 0kts
29-Jul-20 14:32 33.665869 -117.873003 21 61ft 0kts

Navigation Log

Ident Type
Flight plan parsing failed, navigation log unavailable